sensor_id;sensor_type;location;lat;lon;timestamp;temperature;humidity
14210;DHT22;7188;56.070;12.698;2023-12-22T00:01:38;2.50;99.90
14210;DHT22;7188;56.070;12.698;2023-12-22T00:04:04;2.60;99.90
14210;DHT22;7188;56.070;12.698;2023-12-22T00:06:32;2.70;99.90
14210;DHT22;7188;56.070;12.698;2023-12-22T00:08:58;2.80;99.90
14210;DHT22;7188;56.070;12.698;2023-12-22T00:11:23;2.90;99.90
14210;DHT22;7188;56.070;12.698;2023-12-22T00:13:49;3.00;99.90
14210;DHT22;7188;56.070;12.698;2023-12-22T00:16:15;3.00;99.90
14210;DHT22;7188;56.070;12.698;2023-12-22T00:18:40;3.10;99.90
14210;DHT22;7188;56.070;12.698;2023-12-22T00:21:12;3.10;99.90
14210;DHT22;7188;56.070;12.698;2023-12-22T00:23:38;3.20;99.90
14210;DHT22;7188;56.070;12.698;2023-12-22T00:26:05;3.20;99.90
14210;DHT22;7188;56.070;12.698;2023-12-22T00:28:31;3.00;99.90
14210;DHT22;7188;56.070;12.698;2023-12-22T00:30:59;2.80;99.90
14210;DHT22;7188;56.070;12.698;2023-12-22T00:33:25;2.60;99.90
14210;DHT22;7188;56.070;12.698;2023-12-22T00:35:51;2.70;99.90
14210;DHT22;7188;56.070;12.698;2023-12-22T00:38:17;2.80;99.90
14210;DHT22;7188;56.070;12.698;2023-12-22T00:40:42;2.70;99.90
14210;DHT22;7188;56.070;12.698;2023-12-22T00:43:08;2.60;99.90
14210;DHT22;7188;56.070;12.698;2023-12-22T00:45:33;2.50;99.90
14210;DHT22;7188;56.070;12.698;2023-12-22T00:47:59;2.60;99.90
14210;DHT22;7188;56.070;12.698;2023-12-22T00:50:25;2.60;99.90
14210;DHT22;7188;56.070;12.698;2023-12-22T00:52:50;2.70;99.90
14210;DHT22;7188;56.070;12.698;2023-12-22T00:55:34;2.80;99.90
14210;DHT22;7188;56.070;12.698;2023-12-22T00:58:00;2.90;99.90
14210;DHT22;7188;56.070;12.698;2023-12-22T01:00:25;3.00;99.90
14210;DHT22;7188;56.070;12.698;2023-12-22T01:02:51;3.00;99.90
14210;DHT22;7188;56.070;12.698;2023-12-22T01:05:16;3.10;99.90
14210;DHT22;7188;56.070;12.698;2023-12-22T01:08:16;3.20;99.90
14210;DHT22;7188;56.070;12.698;2023-12-22T01:10:42;3.40;99.90
14210;DHT22;7188;56.070;12.698;2023-12-22T01:13:07;3.50;99.90
14210;DHT22;7188;56.070;12.698;2023-12-22T01:15:33;3.60;99.90
14210;DHT22;7188;56.070;12.698;2023-12-22T01:17:58;3.70;99.90
14210;DHT22;7188;56.070;12.698;2023-12-22T01:20:24;3.70;99.90
14210;DHT22;7188;56.070;12.698;2023-12-22T01:22:49;3.70;99.90
14210;DHT22;7188;56.070;12.698;2023-12-22T01:25:15;3.80;99.90
14210;DHT22;7188;56.070;12.698;2023-12-22T01:27:41;3.80;99.90
14210;DHT22;7188;56.070;12.698;2023-12-22T01:30:07;3.80;99.90
14210;DHT22;7188;56.070;12.698;2023-12-22T01:32:32;3.80;99.90
14210;DHT22;7188;56.070;12.698;2023-12-22T01:35:00;3.80;99.90
14210;DHT22;7188;56.070;12.698;2023-12-22T01:37:29;3.80;99.90
14210;DHT22;7188;56.070;12.698;2023-12-22T01:40:19;3.80;99.90
14210;DHT22;7188;56.070;12.698;2023-12-22T01:42:45;3.80;99.90
14210;DHT22;7188;56.070;12.698;2023-12-22T01:45:11;3.80;99.90
14210;DHT22;7188;56.070;12.698;2023-12-22T01:47:37;3.80;99.90
14210;DHT22;7188;56.070;12.698;2023-12-22T01:50:03;3.80;99.90
14210;DHT22;7188;56.070;12.698;2023-12-22T01:52:29;3.80;1.00
14210;DHT22;7188;56.070;12.698;2023-12-22T01:54:55;3.80;1.00
14210;DHT22;7188;56.070;12.698;2023-12-22T01:57:21;3.80;1.00
14210;DHT22;7188;56.070;12.698;2023-12-22T01:59:48;3.80;1.00
14210;DHT22;7188;56.070;12.698;2023-12-22T02:02:14;3.80;99.90
14210;DHT22;7188;56.070;12.698;2023-12-22T02:04:40;3.80;99.90
14210;DHT22;7188;56.070;12.698;2023-12-22T02:07:08;3.80;99.90
14210;DHT22;7188;56.070;12.698;2023-12-22T02:09:35;3.80;99.90
14210;DHT22;7188;56.070;12.698;2023-12-22T02:12:01;3.80;98.80
14210;DHT22;7188;56.070;12.698;2023-12-22T02:14:27;3.70;1.00
14210;DHT22;7188;56.070;12.698;2023-12-22T02:17:23;3.70;99.90
14210;DHT22;7188;56.070;12.698;2023-12-22T02:19:50;3.80;99.90
14210;DHT22;7188;56.070;12.698;2023-12-22T02:22:16;3.80;99.90
14210;DHT22;7188;56.070;12.698;2023-12-22T02:24:42;3.70;64.10
14210;DHT22;7188;56.070;12.698;2023-12-22T02:27:39;3.80;1.00
14210;DHT22;7188;56.070;12.698;2023-12-22T02:30:09;3.70;1.00
14210;DHT22;7188;56.070;12.698;2023-12-22T02:32:39;3.80;99.90
14210;DHT22;7188;56.070;12.698;2023-12-22T02:35:10;3.70;99.90
14210;DHT22;7188;56.070;12.698;2023-12-22T02:37:39;3.80;99.90
14210;DHT22;7188;56.070;12.698;2023-12-22T02:40:25;3.70;99.90
14210;DHT22;7188;56.070;12.698;2023-12-22T02:42:52;3.70;1.00
14210;DHT22;7188;56.070;12.698;2023-12-22T02:45:18;3.70;1.00
14210;DHT22;7188;56.070;12.698;2023-12-22T02:47:45;3.70;99.90
14210;DHT22;7188;56.070;12.698;2023-12-22T02:50:12;3.70;99.90
14210;DHT22;7188;56.070;12.698;2023-12-22T02:52:38;3.70;99.90
14210;DHT22;7188;56.070;12.698;2023-12-22T02:55:04;3.70;1.00
14210;DHT22;7188;56.070;12.698;2023-12-22T02:57:30;3.70;1.00
14210;DHT22;7188;56.070;12.698;2023-12-22T02:59:56;3.70;1.00
14210;DHT22;7188;56.070;12.698;2023-12-22T03:02:22;3.70;1.00
14210;DHT22;7188;56.070;12.698;2023-12-22T03:04:47;3.70;1.00
14210;DHT22;7188;56.070;12.698;2023-12-22T03:07:13;3.70;99.90
14210;DHT22;7188;56.070;12.698;2023-12-22T03:09:39;3.70;99.90
14210;DHT22;7188;56.070;12.698;2023-12-22T03:12:06;3.70;99.90
14210;DHT22;7188;56.070;12.698;2023-12-22T03:14:32;3.70;1.00
14210;DHT22;7188;56.070;12.698;2023-12-22T03:17:07;3.70;99.90
14210;DHT22;7188;56.070;12.698;2023-12-22T03:19:33;3.70;99.90
14210;DHT22;7188;56.070;12.698;2023-12-22T03:21:59;3.70;99.90
14210;DHT22;7188;56.070;12.698;2023-12-22T03:24:26;3.70;99.90
14210;DHT22;7188;56.070;12.698;2023-12-22T03:26:53;3.70;1.00
14210;DHT22;7188;56.070;12.698;2023-12-22T03:29:18;3.70;1.00
14210;DHT22;7188;56.070;12.698;2023-12-22T03:31:44;3.60;1.00
14210;DHT22;7188;56.070;12.698;2023-12-22T03:34:10;3.70;1.00
14210;DHT22;7188;56.070;12.698;2023-12-22T03:36:36;3.70;1.00
14210;DHT22;7188;56.070;12.698;2023-12-22T03:39:02;3.70;99.90
14210;DHT22;7188;56.070;12.698;2023-12-22T03:41:29;3.60;99.90
14210;DHT22;7188;56.070;12.698;2023-12-22T03:43:55;3.70;49.80
14210;DHT22;7188;56.070;12.698;2023-12-22T03:46:21;3.70;99.90
14210;DHT22;7188;56.070;12.698;2023-12-22T03:48:47;3.70;1.00
14210;DHT22;7188;56.070;12.698;2023-12-22T03:51:12;3.70;99.90
14210;DHT22;7188;56.070;12.698;2023-12-22T03:53:40;3.70;99.90
14210;DHT22;7188;56.070;12.698;2023-12-22T03:56:07;3.70;1.00
14210;DHT22;7188;56.070;12.698;2023-12-22T03:58:33;3.60;6.40
14210;DHT22;7188;56.070;12.698;2023-12-22T04:00:58;3.70;99.90
14210;DHT22;7188;56.070;12.698;2023-12-22T04:03:24;3.70;99.90
14210;DHT22;7188;56.070;12.698;2023-12-22T04:05:49;3.70;99.90
14210;DHT22;7188;56.070;12.698;2023-12-22T04:08:15;3.60;72.80
14210;DHT22;7188;56.070;12.698;2023-12-22T04:10:40;3.60;99.90
14210;DHT22;7188;56.070;12.698;2023-12-22T04:13:06;3.50;99.90
14210;DHT22;7188;56.070;12.698;2023-12-22T04:15:32;3.30;99.90
14210;DHT22;7188;56.070;12.698;2023-12-22T04:17:57;3.30;99.90
14210;DHT22;7188;56.070;12.698;2023-12-22T04:20:23;3.30;99.90
14210;DHT22;7188;56.070;12.698;2023-12-22T04:22:49;3.00;99.90
14210;DHT22;7188;56.070;12.698;2023-12-22T04:25:14;2.70;99.90
14210;DHT22;7188;56.070;12.698;2023-12-22T04:27:40;2.50;99.90
14210;DHT22;7188;56.070;12.698;2023-12-22T04:30:06;2.40;99.90
14210;DHT22;7188;56.070;12.698;2023-12-22T04:32:32;2.30;99.90
14210;DHT22;7188;56.070;12.698;2023-12-22T04:34:57;2.30;99.90
14210;DHT22;7188;56.070;12.698;2023-12-22T04:37:23;2.20;99.90
14210;DHT22;7188;56.070;12.698;2023-12-22T04:39:49;2.30;99.90
14210;DHT22;7188;56.070;12.698;2023-12-22T04:42:18;2.30;99.90
14210;DHT22;7188;56.070;12.698;2023-12-22T04:44:45;2.30;99.90
14210;DHT22;7188;56.070;12.698;2023-12-22T04:47:10;2.30;99.90
14210;DHT22;7188;56.070;12.698;2023-12-22T04:49:38;2.30;99.90
14210;DHT22;7188;56.070;12.698;2023-12-22T04:52:06;2.30;99.90
14210;DHT22;7188;56.070;12.698;2023-12-22T04:54:32;2.30;99.90
14210;DHT22;7188;56.070;12.698;2023-12-22T04:56:57;2.30;99.90
14210;DHT22;7188;56.070;12.698;2023-12-22T04:59:23;2.50;99.90
14210;DHT22;7188;56.070;12.698;2023-12-22T05:01:49;2.50;99.90
14210;DHT22;7188;56.070;12.698;2023-12-22T05:04:14;2.70;1.00
14210;DHT22;7188;56.070;12.698;2023-12-22T05:06:40;2.80;99.90
14210;DHT22;7188;56.070;12.698;2023-12-22T05:09:06;2.90;71.20
14210;DHT22;7188;56.070;12.698;2023-12-22T05:11:31;2.90;1.00
14210;DHT22;7188;56.070;12.698;2023-12-22T05:13:57;2.70;99.90
14210;DHT22;7188;56.070;12.698;2023-12-22T05:16:22;2.40;99.90
14210;DHT22;7188;56.070;12.698;2023-12-22T05:18:48;2.20;99.90
14210;DHT22;7188;56.070;12.698;2023-12-22T05:21:13;2.10;99.90
14210;DHT22;7188;56.070;12.698;2023-12-22T05:23:40;1.90;99.90
14210;DHT22;7188;56.070;12.698;2023-12-22T05:26:05;1.80;99.90
14210;DHT22;7188;56.070;12.698;2023-12-22T05:28:32;1.90;99.90
14210;DHT22;7188;56.070;12.698;2023-12-22T05:30:58;2.00;99.90
14210;DHT22;7188;56.070;12.698;2023-12-22T05:33:23;2.00;99.90
14210;DHT22;7188;56.070;12.698;2023-12-22T05:35:49;2.10;99.90
14210;DHT22;7188;56.070;12.698;2023-12-22T05:38:14;2.10;99.90
14210;DHT22;7188;56.070;12.698;2023-12-22T05:40:41;2.10;99.90
14210;DHT22;7188;56.070;12.698;2023-12-22T05:43:07;2.10;99.90
14210;DHT22;7188;56.070;12.698;2023-12-22T05:45:32;2.20;99.90
14210;DHT22;7188;56.070;12.698;2023-12-22T05:47:58;2.30;99.90
14210;DHT22;7188;56.070;12.698;2023-12-22T05:50:23;2.30;99.90
14210;DHT22;7188;56.070;12.698;2023-12-22T05:52:49;2.30;99.90
14210;DHT22;7188;56.070;12.698;2023-12-22T05:55:15;2.20;99.90
14210;DHT22;7188;56.070;12.698;2023-12-22T05:57:40;2.20;99.90
14210;DHT22;7188;56.070;12.698;2023-12-22T06:00:06;2.20;99.90
14210;DHT22;7188;56.070;12.698;2023-12-22T06:02:35;2.20;99.90
14210;DHT22;7188;56.070;12.698;2023-12-22T06:05:00;2.30;99.90
14210;DHT22;7188;56.070;12.698;2023-12-22T06:07:26;2.20;99.90
14210;DHT22;7188;56.070;12.698;2023-12-22T06:09:52;2.30;99.90
14210;DHT22;7188;56.070;12.698;2023-12-22T06:12:18;2.30;99.90
14210;DHT22;7188;56.070;12.698;2023-12-22T06:14:43;2.30;99.90
14210;DHT22;7188;56.070;12.698;2023-12-22T06:17:09;2.30;99.90
14210;DHT22;7188;56.070;12.698;2023-12-22T06:19:37;2.40;99.90
14210;DHT22;7188;56.070;12.698;2023-12-22T06:22:03;2.50;99.90
14210;DHT22;7188;56.070;12.698;2023-12-22T06:24:29;2.40;99.90
14210;DHT22;7188;56.070;12.698;2023-12-22T06:26:54;2.40;99.90
14210;DHT22;7188;56.070;12.698;2023-12-22T06:29:20;2.40;99.90
14210;DHT22;7188;56.070;12.698;2023-12-22T06:31:46;2.40;99.90
14210;DHT22;7188;56.070;12.698;2023-12-22T06:34:16;2.30;99.90
14210;DHT22;7188;56.070;12.698;2023-12-22T06:36:42;2.30;99.90
14210;DHT22;7188;56.070;12.698;2023-12-22T06:39:08;2.30;99.90
14210;DHT22;7188;56.070;12.698;2023-12-22T06:41:33;2.20;99.90
14210;DHT22;7188;56.070;12.698;2023-12-22T06:43:59;2.10;99.90
14210;DHT22;7188;56.070;12.698;2023-12-22T06:46:43;2.00;99.90
14210;DHT22;7188;56.070;12.698;2023-12-22T06:49:08;1.90;99.90
14210;DHT22;7188;56.070;12.698;2023-12-22T06:51:34;1.90;99.90
14210;DHT22;7188;56.070;12.698;2023-12-22T06:54:01;1.90;99.90
14210;DHT22;7188;56.070;12.698;2023-12-22T06:56:29;1.90;99.90
14210;DHT22;7188;56.070;12.698;2023-12-22T06:58:56;1.90;99.90
14210;DHT22;7188;56.070;12.698;2023-12-22T07:01:28;1.90;99.90
14210;DHT22;7188;56.070;12.698;2023-12-22T07:03:57;1.90;99.90
14210;DHT22;7188;56.070;12.698;2023-12-22T07:06:25;1.90;99.90
14210;DHT22;7188;56.070;12.698;2023-12-22T07:11:39;1.90;99.90
14210;DHT22;7188;56.070;12.698;2023-12-22T07:14:05;1.80;99.90
14210;DHT22;7188;56.070;12.698;2023-12-22T07:16:31;1.80;99.90
14210;DHT22;7188;56.070;12.698;2023-12-22T07:18:57;1.80;99.90
14210;DHT22;7188;56.070;12.698;2023-12-22T07:21:22;1.80;99.90
14210;DHT22;7188;56.070;12.698;2023-12-22T07:23:48;1.80;99.90
14210;DHT22;7188;56.070;12.698;2023-12-22T07:26:13;1.80;99.90
14210;DHT22;7188;56.070;12.698;2023-12-22T07:28:39;1.80;99.90
14210;DHT22;7188;56.070;12.698;2023-12-22T07:31:05;1.80;99.90
14210;DHT22;7188;56.070;12.698;2023-12-22T07:33:31;1.80;99.90
14210;DHT22;7188;56.070;12.698;2023-12-22T07:35:57;1.80;99.90
14210;DHT22;7188;56.070;12.698;2023-12-22T07:38:23;1.70;99.90
14210;DHT22;7188;56.070;12.698;2023-12-22T07:40:49;1.70;99.90
14210;DHT22;7188;56.070;12.698;2023-12-22T07:43:15;1.80;99.90
14210;DHT22;7188;56.070;12.698;2023-12-22T07:45:41;1.90;99.90
14210;DHT22;7188;56.070;12.698;2023-12-22T07:48:06;2.00;99.90
14210;DHT22;7188;56.070;12.698;2023-12-22T07:50:32;2.00;99.90
14210;DHT22;7188;56.070;12.698;2023-12-22T07:52:58;2.20;99.90
14210;DHT22;7188;56.070;12.698;2023-12-22T07:55:24;2.30;99.90
14210;DHT22;7188;56.070;12.698;2023-12-22T07:57:50;2.30;99.90
14210;DHT22;7188;56.070;12.698;2023-12-22T08:00:17;2.40;99.90
14210;DHT22;7188;56.070;12.698;2023-12-22T08:02:43;2.50;99.90
14210;DHT22;7188;56.070;12.698;2023-12-22T08:05:08;2.50;99.90
14210;DHT22;7188;56.070;12.698;2023-12-22T08:07:35;2.60;99.90
14210;DHT22;7188;56.070;12.698;2023-12-22T08:10:01;2.50;99.90
14210;DHT22;7188;56.070;12.698;2023-12-22T08:12:27;2.50;99.90
14210;DHT22;7188;56.070;12.698;2023-12-22T08:14:53;2.60;99.90
14210;DHT22;7188;56.070;12.698;2023-12-22T08:17:19;2.60;99.90
14210;DHT22;7188;56.070;12.698;2023-12-22T08:19:45;2.60;99.90
14210;DHT22;7188;56.070;12.698;2023-12-22T08:22:10;2.60;99.90
14210;DHT22;7188;56.070;12.698;2023-12-22T08:24:38;2.70;99.90
14210;DHT22;7188;56.070;12.698;2023-12-22T08:27:05;2.70;99.90
14210;DHT22;7188;56.070;12.698;2023-12-22T08:29:32;2.70;99.90
14210;DHT22;7188;56.070;12.698;2023-12-22T08:31:57;2.80;99.90
14210;DHT22;7188;56.070;12.698;2023-12-22T08:34:23;2.80;99.90
14210;DHT22;7188;56.070;12.698;2023-12-22T08:36:49;2.90;99.90
14210;DHT22;7188;56.070;12.698;2023-12-22T08:39:15;2.90;99.90
14210;DHT22;7188;56.070;12.698;2023-12-22T08:41:40;2.90;99.90
14210;DHT22;7188;56.070;12.698;2023-12-22T08:44:07;2.90;99.90
14210;DHT22;7188;56.070;12.698;2023-12-22T08:46:33;2.90;99.90
14210;DHT22;7188;56.070;12.698;2023-12-22T08:48:59;2.90;99.90
14210;DHT22;7188;56.070;12.698;2023-12-22T08:51:25;2.90;99.90
14210;DHT22;7188;56.070;12.698;2023-12-22T08:53:52;2.90;99.90
14210;DHT22;7188;56.070;12.698;2023-12-22T08:56:22;2.90;99.90
14210;DHT22;7188;56.070;12.698;2023-12-22T08:58:48;2.90;99.90
14210;DHT22;7188;56.070;12.698;2023-12-22T09:01:18;3.00;99.90
14210;DHT22;7188;56.070;12.698;2023-12-22T09:03:44;3.00;99.90
14210;DHT22;7188;56.070;12.698;2023-12-22T09:06:14;3.10;99.90
14210;DHT22;7188;56.070;12.698;2023-12-22T09:08:40;3.20;99.90
14210;DHT22;7188;56.070;12.698;2023-12-22T09:11:06;3.20;99.90
14210;DHT22;7188;56.070;12.698;2023-12-22T09:13:32;3.30;99.90
14210;DHT22;7188;56.070;12.698;2023-12-22T09:19:13;3.20;99.90
14210;DHT22;7188;56.070;12.698;2023-12-22T09:21:38;3.10;99.90
14210;DHT22;7188;56.070;12.698;2023-12-22T09:24:04;3.10;99.90
14210;DHT22;7188;56.070;12.698;2023-12-22T09:26:30;3.10;99.90
14210;DHT22;7188;56.070;12.698;2023-12-22T09:28:56;3.20;99.90
14210;DHT22;7188;56.070;12.698;2023-12-22T09:31:37;3.30;99.90
14210;DHT22;7188;56.070;12.698;2023-12-22T09:34:02;3.30;99.90
14210;DHT22;7188;56.070;12.698;2023-12-22T09:36:28;3.40;99.90
14210;DHT22;7188;56.070;12.698;2023-12-22T09:38:53;3.40;99.90
14210;DHT22;7188;56.070;12.698;2023-12-22T09:41:19;3.40;99.90
14210;DHT22;7188;56.070;12.698;2023-12-22T09:43:45;3.30;99.90
14210;DHT22;7188;56.070;12.698;2023-12-22T09:46:19;3.40;99.90
14210;DHT22;7188;56.070;12.698;2023-12-22T09:48:46;3.40;99.90
14210;DHT22;7188;56.070;12.698;2023-12-22T09:51:13;3.50;99.90
14210;DHT22;7188;56.070;12.698;2023-12-22T09:53:41;3.50;99.90
14210;DHT22;7188;56.070;12.698;2023-12-22T09:56:07;3.50;99.90
14210;DHT22;7188;56.070;12.698;2023-12-22T09:58:34;3.50;99.90
14210;DHT22;7188;56.070;12.698;2023-12-22T10:01:02;3.50;99.90
14210;DHT22;7188;56.070;12.698;2023-12-22T10:03:36;3.50;99.90
14210;DHT22;7188;56.070;12.698;2023-12-22T10:06:02;3.60;99.90
14210;DHT22;7188;56.070;12.698;2023-12-22T10:08:28;3.60;99.90
14210;DHT22;7188;56.070;12.698;2023-12-22T10:10:54;3.60;99.90
14210;DHT22;7188;56.070;12.698;2023-12-22T10:13:20;3.60;99.90
14210;DHT22;7188;56.070;12.698;2023-12-22T10:15:46;3.60;99.90
14210;DHT22;7188;56.070;12.698;2023-12-22T10:18:12;3.70;99.90
14210;DHT22;7188;56.070;12.698;2023-12-22T10:20:38;3.70;99.90
14210;DHT22;7188;56.070;12.698;2023-12-22T10:23:04;3.70;99.90
14210;DHT22;7188;56.070;12.698;2023-12-22T10:25:31;3.70;99.90
14210;DHT22;7188;56.070;12.698;2023-12-22T10:27:57;3.70;99.90
14210;DHT22;7188;56.070;12.698;2023-12-22T10:30:23;3.70;1.00
14210;DHT22;7188;56.070;12.698;2023-12-22T10:32:51;3.70;1.00
14210;DHT22;7188;56.070;12.698;2023-12-22T10:35:17;3.80;1.00
14210;DHT22;7188;56.070;12.698;2023-12-22T10:37:45;3.70;99.90
14210;DHT22;7188;56.070;12.698;2023-12-22T10:40:11;3.70;99.90
14210;DHT22;7188;56.070;12.698;2023-12-22T10:42:37;3.70;99.90
14210;DHT22;7188;56.070;12.698;2023-12-22T10:45:03;3.70;1.00
14210;DHT22;7188;56.070;12.698;2023-12-22T10:47:28;3.70;1.00
14210;DHT22;7188;56.070;12.698;2023-12-22T10:49:54;3.70;1.00
14210;DHT22;7188;56.070;12.698;2023-12-22T10:52:20;3.70;1.00
14210;DHT22;7188;56.070;12.698;2023-12-22T10:54:47;3.80;99.90
14210;DHT22;7188;56.070;12.698;2023-12-22T10:57:16;3.80;1.00
14210;DHT22;7188;56.070;12.698;2023-12-22T10:59:46;3.80;99.90
14210;DHT22;7188;56.070;12.698;2023-12-22T11:02:16;3.80;99.90
14210;DHT22;7188;56.070;12.698;2023-12-22T11:05:01;3.80;99.90
14210;DHT22;7188;56.070;12.698;2023-12-22T11:07:28;3.80;99.90
14210;DHT22;7188;56.070;12.698;2023-12-22T11:09:56;3.70;1.00
14210;DHT22;7188;56.070;12.698;2023-12-22T11:12:23;3.70;1.00
14210;DHT22;7188;56.070;12.698;2023-12-22T11:14:50;3.70;1.00
14210;DHT22;7188;56.070;12.698;2023-12-22T11:17:22;3.70;1.00
14210;DHT22;7188;56.070;12.698;2023-12-22T11:19:57;3.60;99.90
14210;DHT22;7188;56.070;12.698;2023-12-22T11:22:24;3.30;99.90
14210;DHT22;7188;56.070;12.698;2023-12-22T11:24:51;3.20;99.90
14210;DHT22;7188;56.070;12.698;2023-12-22T11:27:18;3.20;99.90
14210;DHT22;7188;56.070;12.698;2023-12-22T11:29:48;3.30;99.90
14210;DHT22;7188;56.070;12.698;2023-12-22T11:32:19;3.40;99.90
14210;DHT22;7188;56.070;12.698;2023-12-22T11:34:45;3.40;99.90
14210;DHT22;7188;56.070;12.698;2023-12-22T11:37:11;3.10;99.90
14210;DHT22;7188;56.070;12.698;2023-12-22T11:39:39;2.90;99.90
14210;DHT22;7188;56.070;12.698;2023-12-22T11:42:15;2.70;99.90
14210;DHT22;7188;56.070;12.698;2023-12-22T11:44:41;2.60;99.90
14210;DHT22;7188;56.070;12.698;2023-12-22T11:47:08;2.50;99.90
14210;DHT22;7188;56.070;12.698;2023-12-22T11:49:35;2.50;99.90
14210;DHT22;7188;56.070;12.698;2023-12-22T11:52:11;2.40;99.90
14210;DHT22;7188;56.070;12.698;2023-12-22T11:54:51;2.50;99.90
14210;DHT22;7188;56.070;12.698;2023-12-22T11:57:32;2.60;99.90
14210;DHT22;7188;56.070;12.698;2023-12-22T12:02:26;2.80;99.90
14210;DHT22;7188;56.070;12.698;2023-12-22T12:04:58;3.00;99.90
14210;DHT22;7188;56.070;12.698;2023-12-22T12:10:12;3.30;99.90
14210;DHT22;7188;56.070;12.698;2023-12-22T12:12:38;3.40;99.90
14210;DHT22;7188;56.070;12.698;2023-12-22T12:15:13;3.40;99.90
14210;DHT22;7188;56.070;12.698;2023-12-22T12:17:42;3.40;99.90
14210;DHT22;7188;56.070;12.698;2023-12-22T12:20:10;3.50;99.90
14210;DHT22;7188;56.070;12.698;2023-12-22T12:22:37;3.50;99.90
14210;DHT22;7188;56.070;12.698;2023-12-22T12:25:10;3.40;99.90
14210;DHT22;7188;56.070;12.698;2023-12-22T12:27:39;3.20;99.90
14210;DHT22;7188;56.070;12.698;2023-12-22T12:30:10;3.20;99.90
14210;DHT22;7188;56.070;12.698;2023-12-22T12:32:36;3.30;99.90
14210;DHT22;7188;56.070;12.698;2023-12-22T12:35:02;3.40;99.90
14210;DHT22;7188;56.070;12.698;2023-12-22T12:37:29;3.40;99.90
14210;DHT22;7188;56.070;12.698;2023-12-22T12:39:58;3.50;99.90
14210;DHT22;7188;56.070;12.698;2023-12-22T12:42:29;3.50;99.40
14210;DHT22;7188;56.070;12.698;2023-12-22T12:44:56;3.50;50.00
14210;DHT22;7188;56.070;12.698;2023-12-22T12:47:21;3.50;1.00
14210;DHT22;7188;56.070;12.698;2023-12-22T12:49:56;3.50;1.00
14210;DHT22;7188;56.070;12.698;2023-12-22T12:52:23;3.50;1.00
14210;DHT22;7188;56.070;12.698;2023-12-22T12:54:50;3.50;1.00
14210;DHT22;7188;56.070;12.698;2023-12-22T12:57:16;3.60;99.90
14210;DHT22;7188;56.070;12.698;2023-12-22T12:59:51;3.50;1.00
14210;DHT22;7188;56.070;12.698;2023-12-22T13:02:20;3.40;1.00
14210;DHT22;7188;56.070;12.698;2023-12-22T13:04:47;3.40;99.90
14210;DHT22;7188;56.070;12.698;2023-12-22T13:07:12;3.50;99.90
14210;DHT22;7188;56.070;12.698;2023-12-22T13:09:57;3.60;3.70
14210;DHT22;7188;56.070;12.698;2023-12-22T13:12:23;3.50;99.90
14210;DHT22;7188;56.070;12.698;2023-12-22T13:14:50;3.50;99.90
14210;DHT22;7188;56.070;12.698;2023-12-22T13:17:15;3.50;1.00
14210;DHT22;7188;56.070;12.698;2023-12-22T13:19:50;3.50;1.00
14210;DHT22;7188;56.070;12.698;2023-12-22T13:22:16;3.50;1.00
14210;DHT22;7188;56.070;12.698;2023-12-22T13:24:41;3.40;99.90
14210;DHT22;7188;56.070;12.698;2023-12-22T13:27:26;3.40;99.90
14210;DHT22;7188;56.070;12.698;2023-12-22T13:29:51;3.40;99.90
14210;DHT22;7188;56.070;12.698;2023-12-22T13:32:20;3.50;99.90
14210;DHT22;7188;56.070;12.698;2023-12-22T13:34:53;3.50;99.90
14210;DHT22;7188;56.070;12.698;2023-12-22T13:37:19;3.50;4.60
14210;DHT22;7188;56.070;12.698;2023-12-22T13:39:46;3.50;1.00
14210;DHT22;7188;56.070;12.698;2023-12-22T13:42:18;3.50;1.00
14210;DHT22;7188;56.070;12.698;2023-12-22T13:44:48;3.50;1.00
14210;DHT22;7188;56.070;12.698;2023-12-22T13:47:15;2.90;1.00
14210;DHT22;7188;56.070;12.698;2023-12-22T13:49:42;2.60;31.90
14210;DHT22;7188;56.070;12.698;2023-12-22T13:52:23;2.40;99.90
14210;DHT22;7188;56.070;12.698;2023-12-22T13:54:49;2.30;99.90
14210;DHT22;7188;56.070;12.698;2023-12-22T13:57:21;2.30;99.90
14210;DHT22;7188;56.070;12.698;2023-12-22T13:59:49;2.30;99.90
14210;DHT22;7188;56.070;12.698;2023-12-22T14:02:15;2.40;1.00
14210;DHT22;7188;56.070;12.698;2023-12-22T14:04:41;2.60;56.10
14210;DHT22;7188;56.070;12.698;2023-12-22T14:07:06;2.70;1.00
14210;DHT22;7188;56.070;12.698;2023-12-22T14:09:32;2.80;1.00
14210;DHT22;7188;56.070;12.698;2023-12-22T14:11:59;3.00;99.90
14210;DHT22;7188;56.070;12.698;2023-12-22T14:14:25;3.10;99.90
14210;DHT22;7188;56.070;12.698;2023-12-22T14:16:50;3.20;99.90
14210;DHT22;7188;56.070;12.698;2023-12-22T14:19:16;3.30;1.00
14210;DHT22;7188;56.070;12.698;2023-12-22T14:21:41;3.30;1.00
14210;DHT22;7188;56.070;12.698;2023-12-22T14:24:07;3.40;99.90
14210;DHT22;7188;56.070;12.698;2023-12-22T14:26:33;3.50;44.30
14210;DHT22;7188;56.070;12.698;2023-12-22T14:28:58;3.50;1.00
14210;DHT22;7188;56.070;12.698;2023-12-22T14:31:30;3.50;1.00
14210;DHT22;7188;56.070;12.698;2023-12-22T14:33:55;3.50;1.00
14210;DHT22;7188;56.070;12.698;2023-12-22T14:36:23;3.50;1.00
14210;DHT22;7188;56.070;12.698;2023-12-22T14:38:49;3.50;1.00
14210;DHT22;7188;56.070;12.698;2023-12-22T14:41:14;3.30;99.90
14210;DHT22;7188;56.070;12.698;2023-12-22T14:43:40;3.10;1.00
14210;DHT22;7188;56.070;12.698;2023-12-22T14:46:05;3.00;99.90
14210;DHT22;7188;56.070;12.698;2023-12-22T14:48:32;2.90;1.00
14210;DHT22;7188;56.070;12.698;2023-12-22T14:50:58;2.80;99.90
14210;DHT22;7188;56.070;12.698;2023-12-22T14:53:23;2.80;99.90
14210;DHT22;7188;56.070;12.698;2023-12-22T14:55:49;2.80;1.00
14210;DHT22;7188;56.070;12.698;2023-12-22T14:58:14;2.80;1.00
14210;DHT22;7188;56.070;12.698;2023-12-22T15:00:40;2.90;99.90
14210;DHT22;7188;56.070;12.698;2023-12-22T15:03:06;3.10;1.00
14210;DHT22;7188;56.070;12.698;2023-12-22T15:05:33;3.20;1.00
14210;DHT22;7188;56.070;12.698;2023-12-22T15:07:59;3.30;1.00
14210;DHT22;7188;56.070;12.698;2023-12-22T15:10:24;3.30;1.00
14210;DHT22;7188;56.070;12.698;2023-12-22T15:12:50;3.30;99.90
14210;DHT22;7188;56.070;12.698;2023-12-22T15:15:15;3.20;1.00
14210;DHT22;7188;56.070;12.698;2023-12-22T15:17:41;3.10;1.00
14210;DHT22;7188;56.070;12.698;2023-12-22T15:20:07;3.00;1.00
14210;DHT22;7188;56.070;12.698;2023-12-22T15:22:34;3.00;99.90
14210;DHT22;7188;56.070;12.698;2023-12-22T15:24:59;2.90;99.90
14210;DHT22;7188;56.070;12.698;2023-12-22T15:27:25;3.00;1.00
14210;DHT22;7188;56.070;12.698;2023-12-22T15:29:50;2.80;1.00
14210;DHT22;7188;56.070;12.698;2023-12-22T15:32:16;2.70;1.00
14210;DHT22;7188;56.070;12.698;2023-12-22T15:34:42;2.80;17.70
14210;DHT22;7188;56.070;12.698;2023-12-22T15:37:08;2.80;99.90
14210;DHT22;7188;56.070;12.698;2023-12-22T15:39:34;2.90;99.90
14210;DHT22;7188;56.070;12.698;2023-12-22T15:41:59;2.90;99.90
14210;DHT22;7188;56.070;12.698;2023-12-22T15:44:25;2.90;1.00
14210;DHT22;7188;56.070;12.698;2023-12-22T15:46:50;3.00;99.90
14210;DHT22;7188;56.070;12.698;2023-12-22T15:49:16;3.00;1.00
14210;DHT22;7188;56.070;12.698;2023-12-22T15:51:41;3.00;1.00
14210;DHT22;7188;56.070;12.698;2023-12-22T15:54:07;3.00;1.00
14210;DHT22;7188;56.070;12.698;2023-12-22T15:56:32;3.00;1.00
14210;DHT22;7188;56.070;12.698;2023-12-22T15:58:58;3.10;1.00
14210;DHT22;7188;56.070;12.698;2023-12-22T16:01:23;3.10;1.00